Time;durP1;ratioP1;P1;durP2;ratioP2;P2;SDS_P1;SDS_P2;PMS_P1;PMS_P2;Temp;Humidity;BMP_temperature;BMP_pressure;BME280_temperature;BME280_humidity;BME280_pressure;Samples;Min_cycle;Max_cycle;Signal;HPM_P1;HPM_P2
2022/07/19 00:00:23;;;;;;;3.70;3.13;;;21.10;99.90;;;;;;5030673;28;20455;-32
2022/07/19 00:02:49;;;;;;;3.80;3.20;;;21.00;99.90;;;;;;5041645;28;20244;-33
2022/07/19 00:05:14;;;;;;;4.23;3.30;;;20.90;99.90;;;;;;5037990;28;20921;-32
2022/07/19 00:07:41;;;;;;;3.70;3.40;;;20.80;99.90;;;;;;5030078;28;20429;-32
2022/07/19 00:10:09;;;;;;;4.17;3.77;;;20.70;99.90;;;;;;5030875;28;20839;-32
2022/07/19 00:12:36;;;;;;;3.83;3.33;;;20.70;99.90;;;;;;5036246;28;20443;-32
2022/07/19 00:15:05;;;;;;;5.33;3.60;;;20.60;99.90;;;;;;5044042;28;20440;-33
2022/07/19 00:17:31;;;;;;;4.53;3.30;;;20.50;99.90;;;;;;5036815;28;20416;-32
2022/07/19 00:19:56;;;;;;;4.43;3.23;;;20.50;99.90;;;;;;5035425;28;20933;-32
2022/07/19 00:22:22;;;;;;;3.80;3.50;;;20.40;99.90;;;;;;5038749;28;20218;-32
2022/07/19 00:24:48;;;;;;;5.57;3.33;;;20.40;99.90;;;;;;5050298;28;20227;-32
2022/07/19 00:27:13;;;;;;;3.83;3.00;;;20.30;99.90;;;;;;5049717;28;20182;-32
2022/07/19 00:29:39;;;;;;;6.07;3.37;;;20.30;99.90;;;;;;5050204;28;20276;-33
2022/07/19 00:32:05;;;;;;;4.10;3.13;;;20.30;99.90;;;;;;5047815;28;20197;-32
2022/07/19 00:34:31;;;;;;;3.03;2.73;;;20.30;99.90;;;;;;5043619;28;20580;-32
2022/07/19 00:36:56;;;;;;;3.90;2.90;;;20.20;99.90;;;;;;5035493;28;20424;-33
2022/07/19 00:39:22;;;;;;;5.27;3.10;;;20.20;99.90;;;;;;5044221;28;20281;-32
2022/07/19 00:41:48;;;;;;;4.17;2.77;;;20.20;99.90;;;;;;5029921;28;20364;-32
2022/07/19 00:44:14;;;;;;;3.60;3.30;;;20.20;99.90;;;;;;5030232;28;20218;-33
2022/07/19 00:46:39;;;;;;;6.30;3.17;;;20.10;99.90;;;;;;5029733;28;20186;-32
2022/07/19 00:49:06;;;;;;;3.30;3.00;;;20.10;99.90;;;;;;5030087;28;20190;-32
2022/07/19 00:51:37;;;;;;;3.90;3.17;;;20.10;99.90;;;;;;5030215;28;20712;-32
2022/07/19 00:54:04;;;;;;;7.90;3.13;;;20.00;99.90;;;;;;5030179;28;20444;-32
2022/07/19 00:56:33;;;;;;;4.60;3.40;;;20.00;99.90;;;;;;5029717;28;20935;-32
2022/07/19 00:59:02;;;;;;;3.63;3.33;;;19.90;99.90;;;;;;5029819;28;20519;-32
2022/07/19 01:01:28;;;;;;;3.60;3.30;;;19.90;99.90;;;;;;5029879;28;20453;-33
2022/07/19 01:03:55;;;;;;;3.87;3.47;;;19.90;99.90;;;;;;5033189;28;20745;-33
2022/07/19 01:06:22;;;;;;;3.43;3.13;;;19.80;99.90;;;;;;5038096;28;20441;-32
2022/07/19 01:08:47;;;;;;;5.53;3.10;;;19.80;99.90;;;;;;5029176;28;20454;-33
2022/07/19 01:11:13;;;;;;;3.63;3.00;;;19.80;99.90;;;;;;5029914;28;20935;-33
2022/07/19 01:13:39;;;;;;;3.50;3.20;;;19.80;99.90;;;;;;5048664;28;20185;-32
2022/07/19 01:16:05;;;;;;;3.40;2.90;;;19.80;99.90;;;;;;5029916;28;20462;-33
2022/07/19 01:18:31;;;;;;;3.37;3.07;;;19.80;99.90;;;;;;5037940;28;20229;-32
2022/07/19 01:20:58;;;;;;;3.90;3.50;;;19.90;99.90;;;;;;5029679;28;20762;-32
2022/07/19 01:23:24;;;;;;;9.37;3.60;;;20.00;99.90;;;;;;5046624;28;20193;-33
2022/07/19 01:25:50;;;;;;;4.93;3.77;;;20.10;99.90;;;;;;5049556;28;20424;-32
2022/07/19 01:28:16;;;;;;;4.60;4.17;;;20.10;99.90;;;;;;5049222;28;20217;-33
2022/07/19 01:30:42;;;;;;;3.47;3.17;;;20.00;99.90;;;;;;5049731;28;20247;-32
2022/07/19 01:33:08;;;;;;;4.97;4.20;;;20.00;99.90;;;;;;5049619;28;20432;-33
2022/07/19 01:35:34;;;;;;;3.80;3.40;;;19.90;99.90;;;;;;5049479;28;20201;-32
2022/07/19 01:37:59;;;;;;;3.57;3.27;;;19.90;99.90;;;;;;5048733;28;20448;-33
2022/07/19 01:40:25;;;;;;;3.60;3.30;;;19.80;99.90;;;;;;5049521;28;20201;-32
2022/07/19 01:42:51;;;;;;;4.03;3.63;;;19.70;99.90;;;;;;5049620;28;20324;-32
2022/07/19 01:45:18;;;;;;;3.30;2.93;;;19.70;99.90;;;;;;5049519;28;20515;-32
2022/07/19 01:47:45;;;;;;;3.63;2.87;;;19.60;99.90;;;;;;5052399;28;20459;-33
2022/07/19 01:50:14;;;;;;;4.13;2.40;;;19.60;99.90;;;;;;5047939;28;20435;-32
2022/07/19 01:52:39;;;;;;;3.90;3.43;;;19.60;99.90;;;;;;5032959;28;20940;-32
2022/07/19 01:55:06;;;;;;;4.20;3.20;;;19.60;99.90;;;;;;5033370;28;20429;-32
2022/07/19 01:57:32;;;;;;;3.20;2.90;;;19.60;99.90;;;;;;5032587;28;20198;-33
2022/07/19 01:59:58;;;;;;;3.03;2.83;;;19.60;99.90;;;;;;5033222;28;20483;-32
2022/07/19 02:02:23;;;;;;;3.13;2.53;;;19.60;99.90;;;;;;5033126;28;20221;-32
2022/07/19 02:04:49;;;;;;;3.53;2.83;;;19.70;99.90;;;;;;5033082;28;20277;-33
2022/07/19 02:07:15;;;;;;;3.43;2.83;;;19.70;99.90;;;;;;5032216;28;20312;-33
2022/07/19 02:09:41;;;;;;;6.10;2.73;;;19.80;99.90;;;;;;5033051;28;20198;-33
2022/07/19 02:12:07;;;;;;;5.00;2.93;;;19.80;99.90;;;;;;5032897;28;20429;-32
2022/07/19 02:14:33;;;;;;;2.90;2.70;;;19.80;99.90;;;;;;5052680;28;20457;-32
2022/07/19 02:16:58;;;;;;;3.57;3.27;;;19.80;99.90;;;;;;5032250;28;20190;-33
2022/07/19 02:19:24;;;;;;;3.90;3.60;;;19.70;99.90;;;;;;5042775;28;20259;-32
2022/07/19 02:21:50;;;;;;;4.13;3.30;;;19.70;99.90;;;;;;5035996;28;20708;-32
2022/07/19 02:24:16;;;;;;;8.87;3.50;;;19.70;99.90;;;;;;5052852;28;20209;-32
2022/07/19 02:26:41;;;;;;;3.60;3.30;;;19.60;99.90;;;;;;5052051;28;20221;-32
2022/07/19 02:29:07;;;;;;;3.37;3.07;;;19.60;99.90;;;;;;5052518;28;20190;-32
2022/07/19 02:31:34;;;;;;;3.43;3.13;;;19.50;99.90;;;;;;5052518;28;20224;-32
2022/07/19 02:34:00;;;;;;;3.20;2.90;;;19.50;99.90;;;;;;5052407;28;20193;-32
2022/07/19 02:36:25;;;;;;;3.83;3.17;;;19.50;99.90;;;;;;5052274;28;20842;-32
2022/07/19 02:38:51;;;;;;;3.77;3.37;;;19.40;99.90;;;;;;5052046;28;20229;-32
2022/07/19 02:41:17;;;;;;;4.00;3.23;;;19.40;99.90;;;;;;5052217;28;20699;-32
2022/07/19 02:43:43;;;;;;;9.63;3.47;;;19.40;99.90;;;;;;5052498;28;20197;-32
2022/07/19 02:46:09;;;;;;;3.67;3.37;;;19.30;99.90;;;;;;5052459;28;20640;-32
2022/07/19 02:48:34;;;;;;;4.17;3.23;;;19.30;99.90;;;;;;5051571;28;20204;-32
2022/07/19 02:51:00;;;;;;;4.83;4.00;;;19.30;99.90;;;;;;5052070;28;20181;-32
2022/07/19 02:53:26;;;;;;;5.47;3.40;;;19.20;99.90;;;;;;5052202;28;20196;-32
2022/07/19 02:55:52;;;;;;;4.03;3.60;;;19.20;99.90;;;;;;5052167;28;20201;-32
2022/07/19 02:58:18;;;;;;;5.70;3.63;;;19.20;99.90;;;;;;5051191;28;20420;-32
2022/07/19 03:00:44;;;;;;;4.87;3.23;;;19.10;99.90;;;;;;5049429;28;20190;-32
2022/07/19 03:05:55;;;;;;;4.10;3.13;;;19.10;99.90;;;;;;5031872;28;20210;-32
2022/07/19 03:08:21;;;;;;;8.60;3.43;;;19.30;99.90;;;;;;5031442;28;20495;-32
2022/07/19 03:10:47;;;;;;;3.67;3.20;;;19.40;99.90;;;;;;5031945;28;21025;-32
2022/07/19 03:13:13;;;;;;;3.63;3.33;;;19.40;99.90;;;;;;5040024;28;20424;-32
2022/07/19 03:15:39;;;;;;;3.50;2.93;;;19.30;99.90;;;;;;5038487;28;20272;-32
2022/07/19 03:18:04;;;;;;;3.80;3.30;;;19.20;99.90;;;;;;5039503;28;20434;-32
2022/07/19 03:20:30;;;;;;;6.70;3.90;;;19.20;99.90;;;;;;5032831;28;20293;-32
2022/07/19 03:22:56;;;;;;;3.20;2.97;;;19.20;99.90;;;;;;5044648;28;21017;-32
2022/07/19 03:25:22;;;;;;;4.13;3.30;;;19.30;99.90;;;;;;5051511;28;20190;-32
2022/07/19 03:27:48;;;;;;;3.57;3.27;;;19.30;99.90;;;;;;5050965;28;20197;-32
2022/07/19 03:30:13;;;;;;;4.60;4.20;;;19.30;99.90;;;;;;5045097;28;20731;-32
2022/07/19 03:32:39;;;;;;;3.77;3.47;;;19.30;99.90;;;;;;5050112;28;20460;-32
2022/07/19 03:35:06;;;;;;;4.00;3.60;;;19.20;99.90;;;;;;5032123;28;20205;-32
2022/07/19 03:37:31;;;;;;;3.80;3.50;;;19.10;99.90;;;;;;5030883;28;20204;-32
2022/07/19 03:39:57;;;;;;;6.80;3.80;;;19.00;99.90;;;;;;5031225;28;20425;-32
2022/07/19 03:42:23;;;;;;;4.00;3.40;;;19.00;99.90;;;;;;5031358;28;20264;-32
2022/07/19 03:44:49;;;;;;;3.43;3.23;;;18.90;99.90;;;;;;5030019;28;20190;-32
2022/07/19 03:47:14;;;;;;;4.67;3.60;;;18.90;99.90;;;;;;5030398;28;20193;-32
2022/07/19 03:49:40;;;;;;;4.80;3.97;;;18.80;99.90;;;;;;5031217;28;20183;-32
2022/07/19 03:52:06;;;;;;;3.90;3.60;;;18.80;99.90;;;;;;5031050;28;20256;-32
2022/07/19 03:54:31;;;;;;;5.53;3.60;;;18.80;99.90;;;;;;5031181;28;20202;-32
2022/07/19 03:56:57;;;;;;;3.60;3.30;;;18.80;99.90;;;;;;5030282;28;20189;-32
2022/07/19 03:59:23;;;;;;;3.97;3.57;;;18.80;99.90;;;;;;5030981;28;20241;-32
2022/07/19 04:01:49;;;;;;;5.27;4.13;;;18.80;99.90;;;;;;5030409;28;20202;-32
2022/07/19 04:04:15;;;;;;;4.23;3.30;;;18.80;99.90;;;;;;5030973;28;20244;-32
2022/07/19 04:06:41;;;;;;;4.90;3.53;;;18.80;99.90;;;;;;5030148;28;20449;-32
2022/07/19 04:09:07;;;;;;;3.87;3.43;;;18.80;99.90;;;;;;5030195;28;20189;-32
2022/07/19 04:11:32;;;;;;;4.30;3.90;;;19.00;99.90;;;;;;5030670;28;20205;-32
2022/07/19 04:13:58;;;;;;;3.70;3.40;;;19.00;99.90;;;;;;5048320;28;20672;-32
2022/07/19 04:16:24;;;;;;;4.40;2.93;;;19.10;99.90;;;;;;5030379;28;20179;-32
2022/07/19 04:18:50;;;;;;;4.17;3.30;;;19.10;99.90;;;;;;5038999;28;20186;-32
2022/07/19 04:21:15;;;;;;;3.93;3.63;;;19.20;99.90;;;;;;5030510;28;20210;-32
2022/07/19 04:23:41;;;;;;;3.00;2.80;;;19.30;99.90;;;;;;5049386;28;20424;-32
2022/07/19 04:26:07;;;;;;;4.13;3.10;;;19.40;99.90;;;;;;5050297;28;20186;-32
2022/07/19 04:28:32;;;;;;;3.83;2.90;;;19.50;99.90;;;;;;5049842;28;20202;-32
2022/07/19 04:30:58;;;;;;;3.43;3.13;;;19.70;99.90;;;;;;5050320;28;20602;-32
2022/07/19 04:33:24;;;;;;;4.77;3.33;;;19.80;99.90;;;;;;5050434;28;20210;-32
2022/07/19 04:35:50;;;;;;;4.33;3.10;;;19.90;99.90;;;;;;5050501;28;20221;-32
2022/07/19 04:38:15;;;;;;;3.60;3.30;;;20.00;99.90;;;;;;5049629;28;20424;-32
2022/07/19 04:40:41;;;;;;;5.93;3.07;;;20.00;99.90;;;;;;5050268;28;20273;-32
2022/07/19 04:43:07;;;;;;;3.70;2.87;;;20.10;99.90;;;;;;5050082;28;20218;-32
2022/07/19 04:45:32;;;;;;;3.30;3.00;;;20.20;99.90;;;;;;5049968;28;20186;-32
2022/07/19 04:47:58;;;;;;;5.20;2.87;;;20.30;99.90;;;;;;5042159;28;20190;-32
2022/07/19 04:50:24;;;;;;;3.90;3.03;;;20.40;99.90;;;;;;5045530;28;20194;-32
2022/07/19 04:52:49;;;;;;;8.07;3.20;;;20.40;99.90;;;;;;5040188;28;20248;-33
2022/07/19 04:55:15;;;;;;;3.63;3.30;;;20.50;99.90;;;;;;5030149;28;20696;-32
2022/07/19 04:57:41;;;;;;;3.30;2.83;;;20.50;99.90;;;;;;5029335;28;20198;-32
2022/07/19 05:00:09;;;;;;;2.93;2.73;;;20.60;99.90;;;;;;5029936;28;20585;-33
2022/07/19 05:02:36;;;;;;;3.73;2.97;;;20.60;99.90;;;;;;5029842;28;20209;-32
2022/07/19 05:05:03;;;;;;;3.60;3.27;;;20.70;99.90;;;;;;5030154;28;20447;-32
2022/07/19 05:07:28;;;;;;;5.27;3.40;;;20.80;99.90;;;;;;5029250;28;20417;-32
2022/07/19 05:09:54;;;;;;;5.90;3.20;;;20.90;99.90;;;;;;5030082;28;20931;-32
2022/07/19 05:12:20;;;;;;;3.00;2.67;;;21.00;98.70;;;;;;5031615;28;20921;-32
2022/07/19 05:14:46;;;;;;;3.70;3.00;;;21.10;98.60;;;;;;5045919;28;21137;-32
2022/07/19 05:17:12;;;;;;;4.93;3.00;;;21.30;98.50;;;;;;5031214;28;20228;-32
2022/07/19 05:19:38;;;;;;;5.30;2.90;;;21.30;97.90;;;;;;5037352;28;20580;-32
2022/07/19 05:22:04;;;;;;;3.97;3.07;;;21.40;97.50;;;;;;5039148;28;20459;-32
2022/07/19 05:24:30;;;;;;;4.07;3.00;;;21.50;97.60;;;;;;5052372;28;20185;-32
2022/07/19 05:26:55;;;;;;;3.17;2.80;;;21.60;97.30;;;;;;5053284;28;20222;-32
2022/07/19 05:29:21;;;;;;;3.20;2.90;;;21.70;97.30;;;;;;5053399;28;20194;-32
2022/07/19 05:31:47;;;;;;;3.07;2.77;;;21.70;97.20;;;;;;5048227;28;20554;-32
2022/07/19 05:34:13;;;;;;;3.90;2.83;;;21.80;97.30;;;;;;5053476;28;20649;-32
2022/07/19 05:36:39;;;;;;;5.10;3.30;;;21.90;97.10;;;;;;5039873;28;20248;-32
2022/07/19 05:39:05;;;;;;;3.73;3.17;;;21.90;97.00;;;;;;5033509;28;20425;-32
2022/07/19 05:41:31;;;;;;;3.30;3.00;;;22.00;97.20;;;;;;5033386;28;21076;-32
2022/07/19 05:43:57;;;;;;;8.10;3.87;;;22.10;97.20;;;;;;5033279;28;20916;-32
2022/07/19 05:46:22;;;;;;;2.93;2.70;;;22.20;96.60;;;;;;5033369;28;20554;-32
2022/07/19 05:48:49;;;;;;;5.30;3.00;;;22.20;96.60;;;;;;5031552;28;20187;-32
2022/07/19 05:51:15;;;;;;;3.83;3.43;;;22.30;96.20;;;;;;5033468;28;20210;-32
2022/07/19 05:53:41;;;;;;;5.70;3.23;;;22.40;96.00;;;;;;5033409;28;20506;-32
2022/07/19 05:56:07;;;;;;;3.93;3.23;;;22.50;96.20;;;;;;5033215;28;20194;-32
2022/07/19 05:58:33;;;;;;;5.40;3.00;;;22.60;95.90;;;;;;5032290;28;20645;-32
2022/07/19 06:03:44;;;;;;;5.70;3.33;;;23.00;95.40;;;;;;5038562;28;20416;-32
2022/07/19 06:06:10;;;;;;;5.40;2.87;;;23.20;95.10;;;;;;5032897;28;20441;-32
2022/07/19 06:08:36;;;;;;;7.40;3.10;;;23.40;94.70;;;;;;5032574;28;20520;-32
2022/07/19 06:11:02;;;;;;;4.43;3.50;;;23.50;94.50;;;;;;5032671;28;20197;-32
2022/07/19 06:13:27;;;;;;;4.50;3.40;;;23.70;93.80;;;;;;5050940;28;20258;-33
2022/07/19 06:15:53;;;;;;;9.00;3.10;;;23.80;93.80;;;;;;5032939;28;20189;-32
2022/07/19 06:18:19;;;;;;;7.77;2.87;;;24.00;93.50;;;;;;5046219;28;20190;-32
2022/07/19 06:20:45;;;;;;;4.00;3.10;;;24.10;93.00;;;;;;5038614;28;20181;-33
2022/07/19 06:23:11;;;;;;;3.70;3.20;;;24.20;93.20;;;;;;5043508;28;20535;-32
2022/07/19 06:25:37;;;;;;;6.80;3.20;;;24.40;93.30;;;;;;5031637;28;20813;-33
2022/07/19 06:28:03;;;;;;;3.43;2.80;;;24.50;93.10;;;;;;5031864;28;20174;-33
2022/07/19 06:30:29;;;;;;;4.67;3.30;;;24.60;92.60;;;;;;5032632;28;20440;-32
2022/07/19 06:32:55;;;;;;;3.80;2.77;;;24.70;93.10;;;;;;5030665;28;20234;-32
2022/07/19 06:35:21;;;;;;;3.20;2.90;;;24.80;92.80;;;;;;5032645;28;20225;-32
2022/07/19 06:37:46;;;;;;;4.70;2.90;;;25.00;92.50;;;;;;5031943;28;20185;-32
2022/07/19 06:40:12;;;;;;;4.33;3.13;;;25.10;92.50;;;;;;5032417;28;20513;-33
2022/07/19 06:42:38;;;;;;;3.60;3.27;;;25.20;92.20;;;;;;5032272;28;20685;-32
2022/07/19 06:45:05;;;;;;;3.97;3.37;;;25.40;91.80;;;;;;5033325;28;20213;-32
2022/07/19 06:47:32;;;;;;;2.97;2.60;;;25.50;91.60;;;;;;5042715;28;20196;-32
2022/07/19 06:49:58;;;;;;;4.50;2.87;;;25.60;91.40;;;;;;5043274;28;20448;-32
2022/07/19 06:52:24;;;;;;;4.70;2.93;;;25.70;91.00;;;;;;5041014;28;20518;-32
2022/07/19 06:54:50;;;;;;;3.30;3.00;;;25.90;90.70;;;;;;5046364;28;20447;-32
2022/07/19 06:57:16;;;;;;;4.13;2.77;;;25.90;90.90;;;;;;5036428;28;20441;-33
2022/07/19 06:59:42;;;;;;;4.23;2.90;;;26.10;90.50;;;;;;5032405;28;20256;-33
2022/07/19 07:02:07;;;;;;;4.33;3.93;;;26.20;90.60;;;;;;5032090;28;20214;-32
2022/07/19 07:04:33;;;;;;;5.07;3.33;;;26.30;91.00;;;;;;5032265;28;20522;-32
2022/07/19 07:06:59;;;;;;;5.93;3.60;;;26.40;90.60;;;;;;5031251;28;20237;-33
2022/07/19 07:09:25;;;;;;;4.90;3.30;;;26.40;90.30;;;;;;5034552;28;20417;-33
2022/07/19 07:11:51;;;;;;;6.37;3.10;;;26.60;90.50;;;;;;5046207;28;20821;-32
2022/07/19 07:14:17;;;;;;;3.27;2.97;;;26.70;89.40;;;;;;5053469;28;20190;-33
2022/07/19 07:16:42;;;;;;;5.50;3.30;;;26.80;88.10;;;;;;5031072;28;20190;-32
2022/07/19 07:19:08;;;;;;;3.80;3.10;;;26.90;88.40;;;;;;5041160;28;20653;-33
2022/07/19 07:21:35;;;;;;;4.37;3.30;;;27.00;89.40;;;;;;5032958;28;20248;-33
2022/07/19 07:24:05;;;;;;;5.00;3.70;;;27.10;87.90;;;;;;5051290;28;20182;-33
2022/07/19 07:26:31;;;;;;;6.60;3.40;;;27.20;88.10;;;;;;5051264;28;20424;-33
2022/07/19 07:28:57;;;;;;;5.20;3.70;;;27.30;87.90;;;;;;5048631;28;20423;-33
2022/07/19 07:31:23;;;;;;;4.30;3.77;;;27.40;87.10;;;;;;5042070;28;20794;-33
2022/07/19 07:33:49;;;;;;;4.90;3.93;;;27.50;84.90;;;;;;5042226;28;20864;-33
2022/07/19 07:36:15;;;;;;;3.80;3.37;;;27.70;83.90;;;;;;5031387;28;20524;-33
2022/07/19 07:38:41;;;;;;;4.17;3.70;;;27.80;84.20;;;;;;5030575;28;20194;-33
2022/07/19 07:41:07;;;;;;;5.20;3.93;;;27.90;81.80;;;;;;5036316;28;20266;-32
2022/07/19 07:43:33;;;;;;;5.00;3.60;;;28.00;80.00;;;;;;5047146;28;21173;-32
2022/07/19 07:45:58;;;;;;;3.47;3.10;;;28.20;79.70;;;;;;5031327;28;20935;-33
2022/07/19 07:48:24;;;;;;;5.40;3.70;;;28.20;80.00;;;;;;5030574;28;20186;-33
2022/07/19 07:50:50;;;;;;;4.30;3.63;;;28.40;77.30;;;;;;5031045;28;20218;-33
2022/07/19 07:53:15;;;;;;;3.67;3.20;;;28.40;76.50;;;;;;5030879;28;20190;-33
2022/07/19 07:55:42;;;;;;;5.63;3.40;;;28.50;76.40;;;;;;5031011;28;20808;-33
2022/07/19 07:58:09;;;;;;;5.97;3.60;;;28.60;76.60;;;;;;5030330;28;20186;-33
2022/07/19 08:00:36;;;;;;;4.67;3.43;;;28.70;76.10;;;;;;5030983;28;20429;-32
2022/07/19 08:03:02;;;;;;;4.33;3.40;;;28.80;73.20;;;;;;5031030;28;20461;-33
2022/07/19 08:05:28;;;;;;;4.00;3.60;;;28.90;72.70;;;;;;5030551;28;20433;-33
2022/07/19 08:07:54;;;;;;;5.20;3.10;;;28.90;73.30;;;;;;5030076;28;20467;-33
2022/07/19 08:10:21;;;;;;;8.40;3.37;;;29.00;71.60;;;;;;5030791;28;20189;-32
2022/07/19 08:12:46;;;;;;;4.20;3.47;;;29.00;70.00;;;;;;5038558;28;20251;-33
2022/07/19 08:15:12;;;;;;;3.70;3.40;;;29.00;69.10;;;;;;5038282;28;20425;-33
2022/07/19 08:17:38;;;;;;;4.30;3.17;;;29.00;68.70;;;;;;5035611;28;20181;-33
2022/07/19 08:20:04;;;;;;;7.57;3.23;;;29.10;68.60;;;;;;5033379;28;20210;-32
2022/07/19 08:22:30;;;;;;;4.27;2.80;;;29.20;67.10;;;;;;5029052;28;20206;-32
2022/07/19 08:24:56;;;;;;;5.20;3.20;;;29.10;65.20;;;;;;5030568;28;20808;-33
2022/07/19 08:27:21;;;;;;;3.30;3.00;;;29.20;66.50;;;;;;5029858;28;20187;-32
2022/07/19 08:29:47;;;;;;;5.70;3.13;;;29.30;65.60;;;;;;5030435;28;20187;-33
2022/07/19 08:32:13;;;;;;;3.60;3.27;;;29.40;66.30;;;;;;5030489;28;20699;-32
2022/07/19 08:34:38;;;;;;;4.20;3.00;;;29.40;62.90;;;;;;5030229;28;20194;-32
2022/07/19 08:37:04;;;;;;;5.60;2.97;;;29.60;61.00;;;;;;5029706;28;20190;-32
2022/07/19 08:39:30;;;;;;;4.70;3.03;;;29.60;58.50;;;;;;5029007;28;20186;-32
2022/07/19 08:41:56;;;;;;;3.73;3.20;;;29.70;59.40;;;;;;5030154;28;20312;-32
2022/07/19 08:44:22;;;;;;;6.83;2.93;;;29.70;58.40;;;;;;5030264;28;20186;-33
2022/07/19 08:46:48;;;;;;;3.40;3.10;;;29.70;57.00;;;;;;5029728;28;20182;-33
2022/07/19 08:49:15;;;;;;;3.93;2.57;;;29.80;57.30;;;;;;5030279;28;20425;-33
2022/07/19 08:51:42;;;;;;;3.53;3.23;;;29.80;56.20;;;;;;5030143;28;20944;-33
2022/07/19 08:54:08;;;;;;;6.03;3.30;;;29.80;57.10;;;;;;5030195;28;20431;-33
2022/07/19 08:59:17;;;;;;;3.87;2.77;;;30.10;56.50;;;;;;5029986;28;20218;-33
2022/07/19 09:01:43;;;;;;;5.93;3.07;;;30.20;56.40;;;;;;5029752;28;21198;-32
2022/07/19 09:04:15;;;;;;;4.73;3.40;;;30.30;53.40;;;;;;5030013;28;20293;-33
2022/07/19 09:06:52;;;;;;;5.40;2.43;;;30.30;52.80;;;;;;5029236;28;20206;-33
2022/07/19 09:09:29;;;;;;;7.00;3.00;;;30.30;53.80;;;;;;5036983;28;20472;-33
2022/07/19 09:11:58;;;;;;;5.83;3.10;;;30.50;52.70;;;;;;5049822;28;20453;-33
2022/07/19 09:14:26;;;;;;;3.10;2.80;;;30.60;52.90;;;;;;5050168;28;20413;-33
2022/07/19 09:17:01;;;;;;;6.70;3.50;;;30.70;52.70;;;;;;5029143;28;20736;-32
2022/07/19 09:19:29;;;;;;;5.13;2.90;;;30.90;51.90;;;;;;5029246;28;20436;-32
2022/07/19 09:22:03;;;;;;;3.73;2.97;;;31.00;50.30;;;;;;5033909;28;20509;-33
2022/07/19 09:24:32;;;;;;;5.50;2.90;;;31.00;49.70;;;;;;5049849;28;20454;-33
2022/07/19 09:27:06;;;;;;;3.30;2.90;;;31.00;49.90;;;;;;5048765;28;20427;-33
2022/07/19 09:29:33;;;;;;;3.50;3.20;;;31.10;50.20;;;;;;5049848;28;20518;-33
2022/07/19 09:31:59;;;;;;;2.97;2.63;;;31.30;50.20;;;;;;5049473;28;20434;-33
2022/07/19 09:34:32;;;;;;;3.87;3.37;;;31.40;49.50;;;;;;5049740;28;20523;-33
2022/07/19 09:37:21;;;;;;;2.90;2.60;;;31.50;49.10;;;;;;5049010;28;20198;-32
2022/07/19 09:39:51;;;;;;;3.80;2.70;;;31.60;48.20;;;;;;5049596;28;20451;-32
2022/07/19 09:42:24;;;;;;;3.40;3.10;;;31.70;47.80;;;;;;5049364;28;20460;-32
2022/07/19 09:45:01;;;;;;;7.20;3.37;;;31.80;48.20;;;;;;5049657;28;20416;-32
2022/07/19 09:47:32;;;;;;;4.30;3.47;;;31.80;46.10;;;;;;5047433;28;20420;-33
2022/07/19 09:49:58;;;;;;;2.73;2.53;;;31.80;45.80;;;;;;5049003;28;20828;-33
2022/07/19 09:52:25;;;;;;;3.10;2.90;;;31.90;47.00;;;;;;5049260;28;20428;-33
2022/07/19 09:54:51;;;;;;;3.17;2.73;;;32.10;47.10;;;;;;5049413;28;20424;-33
2022/07/19 09:57:22;;;;;;;6.03;2.90;;;32.20;45.80;;;;;;5047294;28;20422;-32
2022/07/19 09:59:53;;;;;;;3.43;2.50;;;32.30;45.50;;;;;;5048187;28;20427;-32
2022/07/19 10:02:22;;;;;;;3.40;3.00;;;32.40;44.30;;;;;;5048988;28;20458;-33
2022/07/19 10:04:49;;;;;;;3.10;2.60;;;32.40;44.20;;;;;;5049347;28;20416;-33
2022/07/19 10:07:17;;;;;;;3.53;3.00;;;32.50;44.00;;;;;;5049877;28;20949;-33
2022/07/19 10:09:44;;;;;;;3.53;3.23;;;32.50;44.50;;;;;;5053153;28;20849;-33
2022/07/19 10:12:11;;;;;;;3.10;2.80;;;32.60;43.80;;;;;;5051671;28;20485;-33
2022/07/19 10:14:37;;;;;;;8.40;3.70;;;32.70;43.10;;;;;;5053036;28;20449;-33
2022/07/19 10:17:21;;;;;;;5.37;3.50;;;32.80;43.50;;;;;;5032751;28;20427;-33
2022/07/19 10:19:48;;;;;;;3.70;2.60;;;32.90;42.60;;;;;;5038949;28;20417;-33
2022/07/19 10:22:20;;;;;;;5.57;3.00;;;32.90;41.90;;;;;;5039731;28;20460;-33
2022/07/19 10:24:54;;;;;;;3.17;2.60;;;32.90;41.90;;;;;;5052674;28;20431;-32
2022/07/19 10:27:26;;;;;;;3.23;2.73;;;33.00;42.60;;;;;;5051941;28;20477;-33
2022/07/19 10:30:12;;;;;;;4.13;2.93;;;33.10;43.60;;;;;;5052503;28;21162;-33
2022/07/19 10:32:46;;;;;;;3.20;2.93;;;33.20;42.20;;;;;;5052370;28;20507;-33
2022/07/19 10:35:17;;;;;;;3.53;3.23;;;33.30;42.60;;;;;;5052667;28;20428;-33
2022/07/19 10:38:08;;;;;;;4.07;2.87;;;33.20;41.60;;;;;;5051606;28;20423;-33
2022/07/19 10:40:41;;;;;;;3.10;2.80;;;33.20;41.50;;;;;;5052028;28;20432;-33
2022/07/19 10:43:11;;;;;;;3.63;2.83;;;33.20;41.10;;;;;;5052240;28;20471;-33
2022/07/19 10:45:39;;;;;;;4.00;2.63;;;33.30;41.90;;;;;;5052507;28;20527;-33
2022/07/19 10:48:08;;;;;;;3.67;2.90;;;33.40;41.50;;;;;;5051447;28;20589;-33
2022/07/19 10:50:48;;;;;;;5.93;2.93;;;33.50;42.20;;;;;;5050914;28;20420;-33
2022/07/19 10:53:47;;;;;;;5.00;3.10;;;33.40;41.10;;;;;;5052338;28;20435;-33
2022/07/19 10:56:20;;;;;;;6.70;3.07;;;33.50;41.30;;;;;;5030778;28;20456;-33
2022/07/19 10:58:52;;;;;;;4.90;2.60;;;33.50;41.10;;;;;;5030240;28;20440;-33
2022/07/19 11:01:19;;;;;;;4.60;3.43;;;33.60;40.90;;;;;;5032103;28;20421;-33
2022/07/19 11:03:47;;;;;;;3.40;3.10;;;33.60;40.60;;;;;;5032016;28;20937;-33
2022/07/19 11:06:23;;;;;;;3.93;2.77;;;33.60;40.20;;;;;;5032025;28;20445;-33
2022/07/19 11:08:54;;;;;;;4.10;3.07;;;33.60;40.40;;;;;;5031293;28;20417;-33
2022/07/19 11:11:19;;;;;;;3.77;2.87;;;33.70;41.10;;;;;;5031868;28;20957;-33
2022/07/19 11:13:52;;;;;;;2.90;2.70;;;33.80;40.60;;;;;;5049348;28;20433;-33
2022/07/19 11:16:18;;;;;;;5.23;3.10;;;33.80;40.30;;;;;;5032010;28;20186;-33
2022/07/19 11:18:44;;;;;;;3.30;2.50;;;33.90;40.30;;;;;;5039488;28;20413;-33
2022/07/19 11:21:12;;;;;;;5.10;2.90;;;33.90;39.80;;;;;;5030369;28;20418;-33
2022/07/19 11:23:39;;;;;;;3.97;2.80;;;34.00;39.80;;;;;;5049760;28;20432;-33
2022/07/19 11:26:10;;;;;;;3.77;2.83;;;34.00;38.80;;;;;;5051549;28;20489;-33
2022/07/19 11:28:38;;;;;;;3.50;3.17;;;34.00;39.40;;;;;;5050898;28;20428;-33
2022/07/19 11:31:21;;;;;;;3.00;2.80;;;34.10;40.50;;;;;;5051522;28;20439;-33
2022/07/19 11:33:48;;;;;;;2.80;2.53;;;34.20;40.10;;;;;;5051403;28;20436;-33
2022/07/19 11:36:16;;;;;;;4.00;2.70;;;34.30;39.50;;;;;;5051486;28;20432;-33
2022/07/19 11:38:47;;;;;;;2.90;2.60;;;34.40;39.10;;;;;;5050833;28;20417;-33
2022/07/19 11:41:16;;;;;;;7.13;3.47;;;34.40;38.20;;;;;;5051226;28;20908;-33
2022/07/19 11:43:42;;;;;;;4.10;2.97;;;34.30;37.80;;;;;;5051301;28;21068;-33
2022/07/19 11:46:07;;;;;;;5.73;3.43;;;34.20;37.60;;;;;;5051039;28;20431;-33
2022/07/19 11:48:33;;;;;;;3.93;3.00;;;34.30;38.20;;;;;;5050367;28;20197;-33
2022/07/19 11:51:10;;;;;;;4.60;3.07;;;34.30;38.50;;;;;;5050967;28;20193;-33
2022/07/19 11:53:38;;;;;;;6.43;3.10;;;34.30;36.90;;;;;;5051226;28;20423;-33
2022/07/19 11:56:06;;;;;;;3.27;2.90;;;34.30;38.00;;;;;;5051033;28;20768;-33
2022/07/19 11:58:33;;;;;;;3.40;3.10;;;34.40;37.90;;;;;;5050585;28;20413;-33
2022/07/19 12:01:05;;;;;;;2.97;2.67;;;34.50;37.50;;;;;;5050439;28;20527;-33
2022/07/19 12:03:31;;;;;;;3.20;2.90;;;34.60;38.30;;;;;;5050897;28;20468;-33
2022/07/19 12:06:08;;;;;;;3.70;2.70;;;34.60;37.70;;;;;;5049265;28;20448;-33
2022/07/19 12:08:44;;;;;;;5.40;3.50;;;34.60;37.80;;;;;;5050113;28;20436;-33
2022/07/19 12:11:23;;;;;;;5.10;2.80;;;34.70;37.90;;;;;;5050554;28;20431;-33
2022/07/19 12:13:50;;;;;;;3.60;2.50;;;34.80;36.70;;;;;;5056491;28;20527;-33
2022/07/19 12:16:17;;;;;;;3.10;2.90;;;34.80;36.30;;;;;;5030725;28;20436;-33
2022/07/19 12:18:50;;;;;;;4.07;3.10;;;34.80;36.10;;;;;;5039065;28;20428;-33
2022/07/19 12:21:21;;;;;;;3.50;3.20;;;34.70;35.80;;;;;;5030502;28;20777;-33
2022/07/19 12:24:09;;;;;;;3.53;2.93;;;34.70;37.20;;;;;;5049995;28;20440;-33
2022/07/19 12:26:35;;;;;;;4.80;3.30;;;34.70;36.70;;;;;;5049917;28;20450;-33
2022/07/19 12:29:15;;;;;;;6.73;3.30;;;34.80;36.10;;;;;;5050266;28;20432;-33
2022/07/19 12:31:45;;;;;;;3.50;2.90;;;34.70;35.20;;;;;;5050125;28;20794;-33
2022/07/19 12:34:12;;;;;;;2.90;2.70;;;34.70;35.50;;;;;;5050412;28;20497;-33
2022/07/19 12:36:38;;;;;;;4.07;3.00;;;34.80;36.20;;;;;;5049622;28;21089;-33
2022/07/19 12:39:04;;;;;;;3.10;2.90;;;34.80;35.30;;;;;;5050246;28;20549;-33
2022/07/19 12:41:30;;;;;;;5.23;3.23;;;34.90;36.50;;;;;;5050177;28;20515;-33
2022/07/19 12:43:55;;;;;;;3.60;2.83;;;34.90;35.80;;;;;;5050272;28;20281;-33
2022/07/19 12:46:21;;;;;;;4.57;2.83;;;34.90;35.90;;;;;;5050021;28;20297;-33
2022/07/19 12:48:47;;;;;;;3.97;3.50;;;34.90;34.90;;;;;;5049439;28;20211;-33
2022/07/19 12:51:13;;;;;;;3.80;2.83;;;34.90;36.90;;;;;;5049969;28;20204;-33
2022/07/19 12:53:39;;;;;;;4.20;3.17;;;35.00;37.00;;;;;;5050050;28;20299;-33
2022/07/19 12:56:04;;;;;;;3.53;3.10;;;35.10;36.20;;;;;;5048837;28;20208;-33